Hauptseite
METAR-TAF:

METAR-TAF

Flughäfen :

Flughafen Sylt

Westerland, Deutschland

Breite: 54-55N, Länge: 008-21E, Höhe: 16 m

Beobachtung

Neuester Wetterbericht von vor 41 Minuten, um 15:20 UTC
Wind 10 kt aus West
Temperatur 20°C
Luftfeuchtigkeit 88%
Luftdruck 1026 hPa
Sichtweite 10 km oder mehr
Aufgelockert bewölkt in der Höhe von 900 ft

METAR: EDXW 231520Z 26010KT 9999 SCT009 20/18 Q1026

Zeit: 18:01 (16:01 UTC)

Prognose

Neuester Wetterbericht von vor 2 Stunden und 1 Minuten, um 14:00 UTC
Gültige Prognose vom 23 um 15 UTC bis 23 um 21 UTC
Wind 11 kt aus West/Südwest
Sichtweite 10 km oder mehr
Leicht bewölkt in der Höhe von 1200 ft
Übergehend zu
vom 23 um 15 UTC bis 23 um 17 UTC
Wind 5 kt aus West
Wahrscheinlichkeit 30% :
Zeitweise
vom 23 um 15 UTC bis 23 um 21 UTC
Durchbrochene Bewölkung in der Höhe von 700 ft

TAF: EDXW 231400Z 2315/2321 25011KT 9999 FEW012 BECMG 2315/2317 27005KT PROB30 TEMPO 2315/2321 BKN007

Wetterbeobachtungen und Prognosen von mehr als 4000 Flughäfen (METAR und TAF Bericht).

Die verfügbaren Stationen werden durch gelbe und rote Markierungen auf der Karte dargestellt.

Führen Sie die Maus auf sie, um den Namen der Station zu sehen.

Darauf klicken, um die Beobachtung von Wetterbeobachtungen und Prognosen zu sehen.

Um die Karte zu ändern : klicken Sie auf den grünen Tasten mit einem schwarzen Kreuz Zum Vergrößern, auf den grünen Button mit einem Gedankenstrich zu verkleinern, oder auf die grünen Pfeile für benachbarte Karten.


METAR-TAF: